Flight Track Log - Related Links

Times and Time Zones

All times are in EDT time to prevent confusion due to time zone crossing. See the FLG3432 flight status page for this flight to view local times or setup timezone preferences in your user account.

Time Position Orientation Groundspeed Altitude Reporting Facility
EDT Latitude Longitude Course Direction KTS MPH feet Rate Location/Type
Mon 12:28:35 PM 42.2036 -83.3556 211° Southwest 146 168 1,300  Level Cleveland Center
Mon 12:29:24 PM 42.1739 -83.3794 211° Southwest 185 213 2,700 1,914 Climbing Cleveland Center
Mon 12:30:31 PM 42.1144 -83.4217 208° Southwest 249 287 5,000 2,484 Climbing Cleveland Center
Mon 12:31:32 PM 42.0528 -83.4719 211° Southwest 258 297 8,000 2,585 Climbing Cleveland Center
Mon 12:32:34 PM 41.9847 -83.5275 211° Southwest 289 333 10,300 2,234 Climbing Cleveland Center
Mon 12:33:57 PM 41.8844 -83.6150 213° Southwest 310 357 13,400 2,266 Climbing Cleveland Center
Mon 12:34:57 PM 41.8075 -83.6811 213° Southwest 315 362 15,700 2,050 Climbing Cleveland Center
Mon 12:35:57 PM 41.7286 -83.7494 213° Southwest 332 382 17,500 1,700 Climbing Cleveland Center
Mon 12:36:57 PM 41.6472 -83.8206 213° Southwest 342 394 19,100 1,240 Climbing Cleveland Center
Mon 12:37:58 PM 41.5619 -83.8886 211° Southwest 356 410 20,000 450 Climbing Cleveland Center
Mon 12:38:57 PM 41.4725 -83.9561 209° Southwest 362 417 20,000  Level Cleveland Center
Mon 12:39:39 PM 41.4303 -83.9903 211° Southwest 370 426 20,000  Level Chicago Center
Mon 12:40:41 PM 41.3192 -84.0772 210° Southwest 385 443 20,000  Level Chicago Center
Mon 12:41:43 PM 41.2356 -84.1689 220° Southwest 393 452 20,000  Level Chicago Center
Mon 12:42:46 PM 41.2033 -84.3056 253° West 388 447 20,000  Level Chicago Center
Mon 12:43:48 PM 41.1694 -84.4433 252° West 389 448 20,000  Level Chicago Center
Mon 12:44:50 PM 41.1361 -84.5753 251° West 380 437 20,000  Level Chicago Center
Mon 12:45:52 PM 41.1039 -84.7053 252° West 373 429 20,000  Level Chicago Center
Mon 12:46:54 PM 41.0458 -84.8511 242° Southwest 382 440 20,000  Level Chicago Center
Mon 12:47:56 PM 40.9458 -84.9181 207° Southwest 401 461 20,000  Level Chicago Center
Mon 12:48:58 PM 40.8456 -84.9828 206° Southwest 403 464 20,000  Level Chicago Center
Mon 12:50:00 PM 40.7475 -85.0506 208° Southwest 398 458 20,000  Level Chicago Center
Mon 12:51:02 PM 40.6436 -85.1222 208° Southwest 394 453 20,000  Level Chicago Center
Mon 12:52:04 PM 40.5469 -85.1858 207° Southwest 392 451 20,000 -484 Level Chicago Center
Mon 12:53:06 PM 40.4494 -85.2519 207° Southwest 392 451 19,000 -1,361 Descending Chicago Center
Mon 12:54:03 PM 40.3481 -85.3206 207° Southwest 403 464 17,300 -1,881 Descending Indianapolis Center
Mon 12:55:04 PM 40.2525 -85.3842 207° Southwest 392 451 15,300 -1,951 Descending Indianapolis Center
Mon 12:56:06 PM 40.1986 -85.4831 235° Southwest 344 396 13,300 -1,742 Descending Indianapolis Center
Mon 12:57:08 PM 40.1553 -85.5861 241° Southwest 328 377 11,700 -1,113 Descending Indianapolis Center
Mon 12:58:10 PM 40.0992 -85.6969 237° Southwest 311 358 11,000 -532 Descending Indianapolis Center
Mon 12:59:12 PM 40.0489 -85.7886 234° Southwest 311 358 10,600 -829 Descending Indianapolis Center
Mon 01:00:13 PM 40.0039 -85.8742 236° Southwest 294 338 9,300 -1,512 Descending Indianapolis Center
Mon 01:01:15 PM 39.9606 -85.9536 235° Southwest 275 316 7,500 -1,694 Descending Indianapolis Center
Mon 01:02:17 PM 39.9183 -86.0333 235° Southwest 271 312 5,800 -1,645 Descending Indianapolis Center
Mon 01:03:19 PM 39.8736 -86.1081 232° Southwest 266 306 4,100 -1,065 Descending Indianapolis Center
Mon 01:04:21 PM 39.8269 -86.1664 224° Southwest 251 289 3,600 -871 Descending Indianapolis Center
Mon 01:05:23 PM 39.7814 -86.2253 225° Southwest 216 249 2,300 -1,016 Descending Indianapolis Center
Mon 01:06:25 PM 39.7514 -86.2631 224° Southwest 177 204 1,500 -732 Descending Indianapolis Center
Mon 01:07:26 PM 39.7219 -86.3008 225° Southwest 152 175 800 -689 Descending Indianapolis Center

Login

Don't have an account? Register now (free) for customized features, flight alerts, and more!